Time;durP1;ratioP1;P1;durP2;ratioP2;P2;SDS_P1;SDS_P2;PMS_P1;PMS_P2;Temp;Humidity;BMP_temperature;BMP_pressure;BME280_temperature;BME280_humidity;BME280_pressure;Samples;Min_cycle;Max_cycle;Signal;HPM_P1;HPM_P2
2023/07/24 00:00:20;;;;;;;6.57;5.22;;;18.90;99.90;;;;;;4992268;28;20057;-73
2023/07/24 00:02:45;;;;;;;6.72;5.90;;;18.80;99.90;;;;;;4961437;28;20096;-73
2023/07/24 00:05:11;;;;;;;5.75;5.07;;;18.80;99.90;;;;;;4985987;28;20045;-73
2023/07/24 00:07:37;;;;;;;6.50;5.85;;;18.80;99.90;;;;;;4982335;28;20125;-72
2023/07/24 00:10:04;;;;;;;6.78;6.00;;;18.70;99.90;;;;;;4980560;28;20057;-72
2023/07/24 00:12:29;;;;;;;7.65;6.60;;;18.70;99.90;;;;;;4983015;28;20057;-71
2023/07/24 00:14:55;;;;;;;7.15;6.45;;;18.70;99.90;;;;;;4987838;28;20042;-72
2023/07/24 00:17:21;;;;;;;7.90;6.95;;;18.70;99.90;;;;;;4974538;28;20034;-72
2023/07/24 00:19:46;;;;;;;7.82;6.55;;;18.70;99.90;;;;;;4992206;28;20498;-72
2023/07/24 00:22:12;;;;;;;7.85;7.05;;;18.60;99.90;;;;;;4990498;28;20041;-72
2023/07/24 00:24:38;;;;;;;8.63;7.60;;;18.60;99.90;;;;;;4996168;28;20072;-71
2023/07/24 00:27:04;;;;;;;8.50;7.70;;;18.60;99.90;;;;;;4989591;28;20048;-72
2023/07/24 00:29:29;;;;;;;8.75;7.72;;;18.60;99.90;;;;;;4978874;28;20057;-72
2023/07/24 00:31:55;;;;;;;7.97;7.18;;;18.50;99.90;;;;;;4970132;28;20038;-72
2023/07/24 00:34:21;;;;;;;11.88;7.90;;;18.50;99.90;;;;;;4981914;28;20050;-72
2023/07/24 00:36:46;;;;;;;8.00;7.30;;;18.50;99.90;;;;;;4992192;28;20042;-72
2023/07/24 00:39:14;;;;;;;8.77;7.88;;;18.50;99.90;;;;;;4978559;28;20049;-72
2023/07/24 00:41:40;;;;;;;9.35;8.25;;;18.50;99.90;;;;;;4989439;28;20054;-71
2023/07/24 00:44:06;;;;;;;9.38;8.48;;;18.50;99.90;;;;;;4988725;28;20104;-71
2023/07/24 00:46:32;;;;;;;9.52;8.52;;;18.40;99.90;;;;;;4979988;28;20465;-73
2023/07/24 00:49:00;;;;;;;9.52;8.63;;;18.40;99.90;;;;;;4985331;28;20123;-72
2023/07/24 00:51:29;;;;;;;12.73;8.88;;;18.40;99.90;;;;;;4969223;28;20066;-73
2023/07/24 00:54:00;;;;;;;9.35;8.45;;;18.40;99.90;;;;;;4966014;28;20413;-72
2023/07/24 00:56:27;;;;;;;9.82;8.82;;;18.40;99.90;;;;;;4965038;28;20058;-73
2023/07/24 00:58:57;;;;;;;9.05;8.15;;;18.40;99.90;;;;;;4986667;28;20038;-73
2023/07/24 01:01:24;;;;;;;8.60;7.70;;;18.40;99.90;;;;;;4964995;28;20682;-73
2023/07/24 01:03:50;;;;;;;;;;;18.40;99.90;;;;;;4971999;28;20136;-72
2023/07/24 01:06:16;;;;;;;9.43;7.23;;;18.40;99.90;;;;;;4988228;28;19929;-72
2023/07/24 01:08:42;;;;;;;7.50;6.38;;;18.40;99.90;;;;;;4970460;28;20509;-72
2023/07/24 01:11:22;;;;;;;7.72;6.45;;;18.40;99.90;;;;;;4976405;28;20046;-72
2023/07/24 01:13:57;;;;;;;6.95;6.25;;;18.40;99.90;;;;;;4982134;28;20050;-72
2023/07/24 01:16:26;;;;;;;7.05;6.35;;;18.40;99.90;;;;;;4984629;28;20133;-72
2023/07/24 01:18:53;;;;;;;7.35;6.03;;;18.30;99.90;;;;;;4983588;28;20125;-72
2023/07/24 01:21:31;;;;;;;7.75;6.50;;;18.30;99.90;;;;;;4970627;28;20065;-72
2023/07/24 01:24:31;;;;;;;7.10;6.40;;;18.30;99.90;;;;;;4969383;28;20089;-72
2023/07/24 01:26:57;;;;;;;7.18;6.38;;;18.30;99.90;;;;;;4985567;28;20045;-72
2023/07/24 01:29:23;;;;;;;6.78;6.03;;;18.30;99.90;;;;;;4988344;28;20176;-70
2023/07/24 01:31:48;;;;;;;6.43;5.35;;;18.30;99.90;;;;;;4965281;28;20070;-72
2023/07/24 01:34:14;;;;;;;6.68;6.07;;;18.20;99.90;;;;;;4979963;28;20046;-71
2023/07/24 01:36:40;;;;;;;5.80;5.20;;;18.30;99.90;;;;;;4957953;28;20085;-73
2023/07/24 01:39:07;;;;;;;6.72;6.03;;;18.30;99.90;;;;;;4964324;28;20483;-73
2023/07/24 01:41:33;;;;;;;7.25;5.40;;;18.20;99.90;;;;;;4959241;28;20117;-74
2023/07/24 01:44:01;;;;;;;6.75;5.53;;;18.20;99.90;;;;;;4975420;28;20042;-73
2023/07/24 01:46:27;;;;;;;7.93;5.50;;;18.20;99.90;;;;;;4978827;28;20051;-73
2023/07/24 01:48:52;;;;;;;6.60;5.80;;;18.20;99.90;;;;;;4969384;28;20050;-74
2023/07/24 01:51:18;;;;;;;7.13;6.10;;;18.20;99.90;;;;;;4974781;28;20050;-73
2023/07/24 01:53:44;;;;;;;5.65;5.05;;;18.10;99.90;;;;;;4979620;28;20046;-74
2023/07/24 01:56:09;;;;;;;6.35;5.65;;;18.10;99.90;;;;;;4975847;28;20061;-74
2023/07/24 01:58:35;;;;;;;6.57;5.32;;;18.10;99.90;;;;;;4958230;28;20081;-74
2023/07/24 02:01:00;;;;;;;6.60;5.90;;;18.10;99.90;;;;;;4979252;28;20050;-72
2023/07/24 02:03:26;;;;;;;5.97;5.38;;;18.10;99.90;;;;;;4965506;28;20112;-73
2023/07/24 02:05:52;;;;;;;6.57;5.88;;;18.10;99.90;;;;;;4987031;28;20463;-73
2023/07/24 02:08:17;;;;;;;7.15;6.00;;;18.00;99.90;;;;;;4979180;28;20042;-73
2023/07/24 02:10:43;;;;;;;6.30;5.60;;;18.00;99.90;;;;;;4981023;28;20099;-73
2023/07/24 02:13:09;;;;;;;6.85;5.57;;;18.00;99.90;;;;;;4998001;28;20046;-73
2023/07/24 02:15:35;;;;;;;7.15;5.95;;;18.00;99.90;;;;;;4989139;28;20125;-72
2023/07/24 02:18:01;;;;;;;6.47;5.72;;;18.00;99.90;;;;;;4998480;28;20135;-72
2023/07/24 02:20:27;;;;;;;6.82;5.47;;;18.00;99.90;;;;;;4968711;28;20125;-73
2023/07/24 02:22:52;;;;;;;5.82;4.97;;;18.00;99.90;;;;;;4972337;28;20053;-73
2023/07/24 02:25:18;;;;;;;6.18;5.55;;;18.00;99.90;;;;;;4977724;28;20057;-72
2023/07/24 02:27:44;;;;;;;7.20;5.90;;;18.00;99.90;;;;;;4973126;28;20069;-73
2023/07/24 02:30:10;;;;;;;5.78;5.18;;;17.90;99.90;;;;;;4989377;28;20065;-72
2023/07/24 02:32:36;;;;;;;7.05;4.90;;;17.90;99.90;;;;;;4975186;28;20571;-73
2023/07/24 02:35:01;;;;;;;5.90;5.30;;;17.90;99.90;;;;;;5000187;28;20046;-74
2023/07/24 02:37:27;;;;;;;5.95;5.10;;;17.90;99.90;;;;;;4994262;28;20505;-71
2023/07/24 02:39:53;;;;;;;7.28;5.60;;;17.90;99.90;;;;;;4997877;28;20374;-71
2023/07/24 02:42:18;;;;;;;6.68;5.40;;;17.90;99.90;;;;;;4995528;28;20045;-71
2023/07/24 02:44:44;;;;;;;6.55;4.93;;;17.90;99.90;;;;;;4972504;28;20078;-71
2023/07/24 02:47:10;;;;;;;6.30;4.65;;;17.90;99.90;;;;;;4985726;28;21692;-71
2023/07/24 02:49:35;;;;;;;6.90;5.25;;;17.90;99.90;;;;;;4982517;28;20121;-71
2023/07/24 02:52:01;;;;;;;5.78;4.75;;;17.90;99.90;;;;;;4986478;28;20042;-72
2023/07/24 02:54:27;;;;;;;7.55;5.13;;;17.90;99.90;;;;;;4978864;28;20058;-72
2023/07/24 02:56:53;;;;;;;6.10;5.03;;;17.80;99.90;;;;;;4983790;28;20053;-70
2023/07/24 02:59:18;;;;;;;5.13;4.50;;;17.80;99.90;;;;;;4976269;28;20056;-71
2023/07/24 03:01:44;;;;;;;4.97;4.47;;;17.80;99.90;;;;;;4986659;28;20050;-71
2023/07/24 03:04:10;;;;;;;6.78;4.82;;;17.80;99.90;;;;;;4998880;28;20045;-71
2023/07/24 03:06:35;;;;;;;5.55;4.80;;;17.80;99.90;;;;;;4981904;28;20130;-73
2023/07/24 03:09:01;;;;;;;6.13;5.13;;;17.80;99.90;;;;;;4980969;28;20481;-71
2023/07/24 03:11:27;;;;;;;6.63;4.80;;;17.80;99.90;;;;;;4980292;28;20090;-71
2023/07/24 03:13:52;;;;;;;6.47;4.95;;;17.80;99.90;;;;;;4998398;28;20417;-71
2023/07/24 03:16:20;;;;;;;7.20;5.25;;;17.80;99.90;;;;;;4971963;28;20457;-71
2023/07/24 03:18:46;;;;;;;6.03;4.50;;;17.80;99.90;;;;;;4977030;28;20053;-70
2023/07/24 03:21:12;;;;;;;6.50;5.03;;;17.80;99.90;;;;;;4982758;28;20651;-72
2023/07/24 03:23:37;;;;;;;7.35;4.97;;;17.80;99.90;;;;;;4984233;28;20049;-71
2023/07/24 03:26:03;;;;;;;5.95;5.30;;;17.80;99.90;;;;;;4969076;28;20050;-71
2023/07/24 03:28:29;;;;;;;6.45;5.20;;;17.80;99.90;;;;;;4969545;28;20545;-72
2023/07/24 03:30:54;;;;;;;6.50;4.97;;;17.80;99.90;;;;;;4966580;28;20132;-73
2023/07/24 03:33:20;;;;;;;5.90;5.30;;;17.80;99.90;;;;;;4975482;28;20129;-73
2023/07/24 03:35:46;;;;;;;7.13;5.05;;;17.80;99.90;;;;;;4983731;28;20049;-73
2023/07/24 03:38:12;;;;;;;6.13;5.00;;;17.80;99.90;;;;;;4983332;28;20108;-74
2023/07/24 03:40:37;;;;;;;7.38;5.47;;;17.80;99.90;;;;;;4965029;28;20046;-72
2023/07/24 03:43:03;;;;;;;7.15;5.13;;;17.80;99.90;;;;;;4972257;28;20493;-73
2023/07/24 03:45:29;;;;;;;6.25;5.60;;;17.80;99.90;;;;;;4963486;28;20055;-74
2023/07/24 03:47:54;;;;;;;6.15;5.55;;;17.80;99.90;;;;;;4969864;28;20038;-73
2023/07/24 03:50:20;;;;;;;7.32;5.85;;;17.80;99.90;;;;;;4963386;28;20793;-73
2023/07/24 03:52:46;;;;;;;6.85;5.93;;;17.80;99.90;;;;;;4978016;28;20074;-73
2023/07/24 03:55:11;;;;;;;8.77;6.78;;;17.80;99.90;;;;;;4980758;28;20046;-73
2023/07/24 03:57:37;;;;;;;7.93;7.22;;;17.80;99.90;;;;;;4958846;28;20145;-73
2023/07/24 04:00:03;;;;;;;8.02;6.97;;;17.90;99.90;;;;;;4977504;28;20061;-74
2023/07/24 04:02:29;;;;;;;8.18;7.38;;;17.90;99.90;;;;;;4977275;28;20506;-73
2023/07/24 04:04:54;;;;;;;8.70;7.80;;;17.90;99.90;;;;;;4978606;28;20112;-73
2023/07/24 04:07:20;;;;;;;9.57;8.60;;;17.80;99.90;;;;;;4976067;28;20436;-72
2023/07/24 04:09:46;;;;;;;8.95;8.10;;;17.80;99.90;;;;;;4978860;28;20086;-73
2023/07/24 04:12:11;;;;;;;9.27;8.38;;;17.80;99.90;;;;;;4979343;28;20089;-73
2023/07/24 04:14:37;;;;;;;9.43;8.52;;;17.80;99.90;;;;;;4960674;28;20061;-72
2023/07/24 04:17:03;;;;;;;9.85;8.85;;;17.90;99.90;;;;;;4983744;28;20050;-72
2023/07/24 04:19:28;;;;;;;10.05;9.05;;;17.90;99.90;;;;;;4980801;28;20121;-72
2023/07/24 04:21:54;;;;;;;9.85;8.85;;;17.90;99.90;;;;;;4974326;28;20087;-73
2023/07/24 04:24:19;;;;;;;9.85;8.85;;;17.90;99.90;;;;;;4971164;28;20104;-74
2023/07/24 04:26:45;;;;;;;9.90;8.90;;;17.90;99.90;;;;;;4984223;28;20050;-73
2023/07/24 04:29:11;;;;;;;10.45;9.35;;;17.90;99.90;;;;;;4981167;28;20079;-72
2023/07/24 04:31:36;;;;;;;9.80;8.90;;;17.90;99.90;;;;;;4982663;28;20112;-74
2023/07/24 04:34:03;;;;;;;9.80;8.82;;;17.80;99.90;;;;;;4977897;28;21577;-72
2023/07/24 04:36:28;;;;;;;9.80;8.90;;;17.80;99.90;;;;;;4971032;28;20054;-73
2023/07/24 04:38:54;;;;;;;9.40;8.00;;;17.90;99.90;;;;;;4981674;28;20401;-71
2023/07/24 04:41:20;;;;;;;9.00;8.10;;;17.80;99.90;;;;;;4964458;28;20045;-72
2023/07/24 04:43:45;;;;;;;8.95;8.15;;;17.80;99.90;;;;;;4976228;28;20050;-71
2023/07/24 04:46:11;;;;;;;9.27;8.48;;;17.80;99.90;;;;;;4962455;28;20034;-72
2023/07/24 04:48:36;;;;;;;9.82;8.82;;;17.80;99.90;;;;;;4985978;28;20055;-71
2023/07/24 04:51:02;;;;;;;9.93;8.93;;;17.80;99.90;;;;;;4981606;28;20057;-71
2023/07/24 04:53:28;;;;;;;9.57;8.57;;;17.80;99.90;;;;;;4961077;28;20050;-73
2023/07/24 04:55:53;;;;;;;9.50;8.60;;;17.80;99.90;;;;;;4985199;28;20042;-72
2023/07/24 04:58:19;;;;;;;10.45;9.35;;;17.80;99.90;;;;;;4986180;28;20042;-73
2023/07/24 05:00:45;;;;;;;10.63;9.73;;;17.80;99.90;;;;;;4993447;28;20100;-74
2023/07/24 05:03:11;;;;;;;9.82;8.93;;;17.80;99.90;;;;;;4983775;28;20046;-72
2023/07/24 05:05:38;;;;;;;9.82;8.93;;;17.90;99.90;;;;;;4970578;28;20122;-73
2023/07/24 05:08:04;;;;;;;10.52;9.52;;;17.90;99.90;;;;;;4971264;28;20057;-72
2023/07/24 05:10:34;;;;;;;10.93;9.93;;;17.90;99.90;;;;;;4994910;28;20054;-72
2023/07/24 05:13:00;;;;;;;10.07;9.15;;;17.90;99.90;;;;;;4978283;28;20122;-72
2023/07/24 05:15:26;;;;;;;10.65;9.65;;;17.90;99.90;;;;;;4976178;28;20046;-72
2023/07/24 05:17:52;;;;;;;10.88;9.65;;;17.80;99.90;;;;;;4978000;28;20045;-72
2023/07/24 05:20:18;;;;;;;10.57;9.57;;;17.90;99.90;;;;;;4985981;28;20043;-72
2023/07/24 05:22:44;;;;;;;10.13;9.23;;;17.90;99.90;;;;;;4989522;28;20461;-71
2023/07/24 05:25:10;;;;;;;11.43;9.55;;;17.80;99.90;;;;;;4984114;28;20065;-72
2023/07/24 05:27:36;;;;;;;10.50;9.18;;;17.90;99.90;;;;;;4973085;28;20049;-73
2023/07/24 05:30:02;;;;;;;10.32;9.10;;;17.80;99.90;;;;;;4981605;28;20042;-71
2023/07/24 05:32:27;;;;;;;10.45;9.38;;;17.80;99.90;;;;;;4986531;28;20177;-71
2023/07/24 05:34:53;;;;;;;10.15;8.93;;;17.90;99.90;;;;;;4965911;28;20054;-71
2023/07/24 05:37:19;;;;;;;9.75;8.77;;;17.90;99.90;;;;;;4967174;28;20046;-71
2023/07/24 05:39:44;;;;;;;10.55;9.65;;;17.90;99.90;;;;;;4963833;28;20050;-72
2023/07/24 05:42:10;;;;;;;11.07;9.50;;;17.90;99.90;;;;;;4990643;28;20041;-74
2023/07/24 05:44:37;;;;;;;10.77;9.30;;;17.90;99.90;;;;;;4981671;28;20494;-74
2023/07/24 05:47:03;;;;;;;10.32;9.43;;;17.90;99.90;;;;;;4979882;28;20050;-70
2023/07/24 05:49:29;;;;;;;11.75;10.55;;;17.90;99.90;;;;;;4957887;28;20047;-73
2023/07/24 05:51:56;;;;;;;11.23;10.20;;;17.90;99.90;;;;;;4981936;28;20060;-73
2023/07/24 05:54:22;;;;;;;11.35;10.25;;;17.90;99.90;;;;;;4972016;28;20085;-72
2023/07/24 05:56:48;;;;;;;11.10;10.10;;;17.90;99.90;;;;;;4976735;28;20774;-74
2023/07/24 05:59:13;;;;;;;11.02;9.90;;;17.90;99.90;;;;;;4966294;28;20053;-74
2023/07/24 06:01:39;;;;;;;11.88;10.80;;;18.00;99.90;;;;;;4992534;28;20046;-72
2023/07/24 06:04:07;;;;;;;11.45;10.43;;;18.10;99.90;;;;;;4980315;28;20058;-74
2023/07/24 06:06:32;;;;;;;;;;;18.10;99.90;;;;;;4981230;28;20092;-71
2023/07/24 06:09:00;;;;;;;13.13;11.77;;;18.10;99.90;;;;;;4991099;28;20012;-72
2023/07/24 06:11:27;;;;;;;11.90;10.63;;;18.10;99.90;;;;;;4962308;28;20540;-71
2023/07/24 06:13:53;;;;;;;12.70;11.50;;;18.20;99.90;;;;;;4992642;28;20496;-71
2023/07/24 06:16:18;;;;;;;12.50;11.38;;;18.20;99.90;;;;;;4974977;28;20043;-72
2023/07/24 06:18:44;;;;;;;11.70;10.55;;;18.30;99.90;;;;;;4975924;28;20590;-73
2023/07/24 06:21:10;;;;;;;12.25;11.05;;;18.30;99.90;;;;;;4979636;28;20076;-72
2023/07/24 06:23:36;;;;;;;11.82;10.70;;;18.40;99.90;;;;;;4979392;28;20513;-72
2023/07/24 06:26:01;;;;;;;11.02;10.02;;;18.40;99.90;;;;;;4977497;28;20053;-72
2023/07/24 06:28:28;;;;;;;11.02;10.02;;;18.40;99.90;;;;;;4977793;28;20057;-72
2023/07/24 06:30:54;;;;;;;10.70;9.70;;;18.40;99.90;;;;;;4984641;28;20131;-72
2023/07/24 06:33:21;;;;;;;11.55;10.13;;;18.40;99.90;;;;;;4982604;28;20129;-72
2023/07/24 06:35:50;;;;;;;11.35;10.35;;;18.50;99.90;;;;;;4993296;28;20179;-72
2023/07/24 06:38:16;;;;;;;10.95;9.95;;;18.50;99.90;;;;;;4975247;28;20045;-71
2023/07/24 06:40:42;;;;;;;12.02;10.07;;;18.50;99.90;;;;;;4978532;28;20049;-71
2023/07/24 06:43:08;;;;;;;10.95;9.90;;;18.50;99.90;;;;;;4974583;28;20052;-72
2023/07/24 06:45:33;;;;;;;11.60;10.50;;;18.60;99.90;;;;;;4981976;28;20046;-72
2023/07/24 06:47:59;;;;;;;11.40;10.30;;;18.70;99.90;;;;;;4972157;28;20048;-72
2023/07/24 06:50:25;;;;;;;11.75;10.70;;;18.80;99.90;;;;;;4971836;28;20418;-72
2023/07/24 06:52:51;;;;;;;13.38;11.77;;;18.90;99.90;;;;;;4991869;28;20088;-71
2023/07/24 06:55:17;;;;;;;11.60;10.48;;;18.90;99.90;;;;;;4983676;28;20052;-71
2023/07/24 06:57:43;;;;;;;11.40;10.30;;;19.00;99.90;;;;;;4983521;28;20046;-73
2023/07/24 07:00:11;;;;;;;11.95;10.85;;;19.00;99.90;;;;;;4985056;28;20070;-74
2023/07/24 07:02:38;;;;;;;13.82;12.50;;;19.00;99.90;;;;;;4971288;28;20137;-72
2023/07/24 07:05:04;;;;;;;13.90;12.70;;;19.00;99.90;;;;;;4976773;28;20046;-71
2023/07/24 07:07:31;;;;;;;13.18;11.98;;;19.00;99.90;;;;;;4967679;28;20487;-71
2023/07/24 07:09:57;;;;;;;13.50;12.32;;;19.00;99.90;;;;;;4966889;28;20046;-70
2023/07/24 07:12:27;;;;;;;13.20;12.00;;;18.90;99.90;;;;;;4974740;28;20058;-73
2023/07/24 07:14:52;;;;;;;13.48;12.38;;;18.90;99.90;;;;;;4982900;28;21758;-72
2023/07/24 07:17:18;;;;;;;13.93;12.63;;;18.90;99.90;;;;;;4981189;28;20383;-69
2023/07/24 07:19:44;;;;;;;14.13;12.82;;;18.90;99.90;;;;;;4993645;28;20053;-72
2023/07/24 07:22:10;;;;;;;13.88;11.88;;;19.00;99.90;;;;;;4984444;28;20053;-71
2023/07/24 07:24:35;;;;;;;13.02;11.75;;;19.00;99.90;;;;;;4990259;28;20038;-73
2023/07/24 07:27:04;;;;;;;13.18;11.93;;;19.00;99.90;;;;;;4966587;28;20100;-70
2023/07/24 07:29:31;;;;;;;12.93;11.73;;;19.10;99.90;;;;;;4976991;28;20053;-71
2023/07/24 07:31:57;;;;;;;12.73;11.50;;;19.00;99.90;;;;;;4982676;28;20077;-72
2023/07/24 07:34:22;;;;;;;13.20;11.90;;;19.00;99.90;;;;;;4971046;28;20042;-72
2023/07/24 07:36:48;;;;;;;12.77;11.52;;;19.00;99.90;;;;;;4967164;28;20050;-69
2023/07/24 07:39:14;;;;;;;13.18;11.85;;;19.00;99.90;;;;;;4989315;28;20047;-71
2023/07/24 07:41:39;;;;;;;12.70;11.40;;;18.90;99.90;;;;;;4988602;28;20038;-73
2023/07/24 07:44:08;;;;;;;12.63;10.95;;;18.90;99.90;;;;;;4970063;28;20074;-72
2023/07/24 07:46:43;;;;;;;12.88;11.57;;;19.00;99.90;;;;;;4979505;28;20042;-71
2023/07/24 07:49:08;;;;;;;13.48;11.90;;;19.00;99.90;;;;;;4983651;28;20080;-70
2023/07/24 07:51:34;;;;;;;12.75;11.45;;;19.10;99.90;;;;;;4980451;28;20054;-72
2023/07/24 07:53:59;;;;;;;12.52;11.07;;;19.20;99.90;;;;;;4992121;28;20449;-72
2023/07/24 07:56:28;;;;;;;13.02;11.45;;;19.30;99.90;;;;;;4987980;28;20060;-72
2023/07/24 07:58:54;;;;;;;12.40;11.18;;;19.40;99.90;;;;;;4975032;28;20041;-72
2023/07/24 08:01:20;;;;;;;12.85;11.45;;;19.50;99.90;;;;;;4984398;28;20056;-73
2023/07/24 08:03:45;;;;;;;14.23;11.15;;;19.50;99.90;;;;;;4971706;28;20061;-72
2023/07/24 08:06:12;;;;;;;11.95;10.75;;;19.40;99.90;;;;;;4965957;28;20050;-72
2023/07/24 08:08:38;;;;;;;12.65;10.55;;;19.40;99.90;;;;;;4977477;28;20104;-72
2023/07/24 08:11:05;;;;;;;11.75;10.55;;;19.40;99.90;;;;;;4987787;28;20038;-72
2023/07/24 08:13:34;;;;;;;14.25;11.35;;;19.40;99.90;;;;;;4969397;28;22437;-72
2023/07/24 08:16:01;;;;;;;12.63;11.05;;;19.40;99.90;;;;;;4983987;28;20058;-73
2023/07/24 08:18:26;;;;;;;12.75;11.38;;;19.30;99.90;;;;;;4985218;28;20050;-73
2023/07/24 08:20:52;;;;;;;13.18;11.30;;;19.30;99.90;;;;;;4992366;28;20046;-72
2023/07/24 08:23:18;;;;;;;15.50;11.23;;;19.30;99.90;;;;;;4973116;28;20654;-72
2023/07/24 08:25:54;;;;;;;12.57;10.63;;;19.30;99.90;;;;;;4968748;28;20073;-71
2023/07/24 08:28:20;;;;;;;12.82;11.32;;;19.30;99.90;;;;;;4977107;28;20193;-73
2023/07/24 08:30:47;;;;;;;13.88;11.25;;;19.30;99.90;;;;;;4990446;28;20132;-70
2023/07/24 08:33:13;;;;;;;12.07;10.87;;;19.30;99.90;;;;;;4969669;28;20464;-72
2023/07/24 08:35:38;;;;;;;11.23;10.02;;;19.30;99.90;;;;;;4981645;28;20048;-72
2023/07/24 08:38:04;;;;;;;13.30;11.48;;;19.40;99.90;;;;;;4993500;28;20030;-72
2023/07/24 08:40:29;;;;;;;11.32;9.90;;;19.40;99.90;;;;;;4962645;28;20557;-72
2023/07/24 08:42:56;;;;;;;12.88;10.70;;;19.50;99.90;;;;;;4959469;28;20165;-72
2023/07/24 08:45:24;;;;;;;12.55;11.23;;;19.50;99.90;;;;;;4977286;28;20041;-71
2023/07/24 08:47:50;;;;;;;12.27;11.07;;;19.60;99.90;;;;;;4962638;28;20054;-71
2023/07/24 08:50:17;;;;;;;12.27;10.98;;;19.60;99.90;;;;;;4989766;28;20084;-71
2023/07/24 08:52:44;;;;;;;12.73;11.43;;;19.60;99.90;;;;;;4977294;28;20049;-71
2023/07/24 08:55:10;;;;;;;12.65;11.23;;;19.70;99.90;;;;;;4967630;28;20050;-72
2023/07/24 08:57:36;;;;;;;13.30;11.98;;;19.70;99.90;;;;;;4985844;28;20050;-71
2023/07/24 09:00:04;;;;;;;13.70;11.55;;;19.80;99.90;;;;;;4982136;28;20120;-71
2023/07/24 09:02:35;;;;;;;12.88;11.57;;;19.90;99.90;;;;;;4970814;28;20399;-69
2023/07/24 09:05:01;;;;;;;13.85;12.38;;;19.90;99.90;;;;;;4972414;28;20524;-72
2023/07/24 09:07:26;;;;;;;12.88;10.65;;;20.00;99.90;;;;;;4990627;28;20035;-72
2023/07/24 09:09:52;;;;;;;12.18;10.95;;;20.10;99.90;;;;;;4984429;28;20048;-72
2023/07/24 09:12:18;;;;;;;11.32;10.13;;;20.30;99.90;;;;;;4968876;28;20073;-73
2023/07/24 09:14:45;;;;;;;12.00;10.02;;;20.40;99.90;;;;;;4974197;28;20056;-72
2023/07/24 09:17:11;;;;;;;11.73;9.25;;;20.50;99.90;;;;;;4985143;28;20042;-72
2023/07/24 09:19:38;;;;;;;12.00;9.80;;;20.50;99.90;;;;;;4988978;28;20047;-72
2023/07/24 09:22:14;;;;;;;10.77;9.43;;;20.50;99.90;;;;;;4985094;28;20524;-72
2023/07/24 09:24:53;;;;;;;9.95;8.93;;;20.50;99.90;;;;;;4974118;28;20054;-69
2023/07/24 09:27:19;;;;;;;10.13;8.73;;;20.70;99.90;;;;;;4985271;28;20037;-73
2023/07/24 09:29:46;;;;;;;10.57;8.90;;;20.80;99.90;;;;;;4964704;28;20052;-72
2023/07/24 09:32:22;;;;;;;9.65;8.35;;;21.00;99.90;;;;;;4977973;28;20038;-72
2023/07/24 09:34:50;;;;;;;12.20;9.23;;;21.00;99.90;;;;;;4986802;28;20042;-73
2023/07/24 09:37:31;;;;;;;11.98;9.00;;;21.10;99.90;;;;;;4971364;28;20083;-73
2023/07/24 09:39:57;;;;;;;11.38;10.25;;;21.20;99.90;;;;;;4981919;28;20447;-73
2023/07/24 09:42:29;;;;;;;9.85;8.30;;;21.40;99.90;;;;;;4962999;28;20109;-73
2023/07/24 09:44:55;;;;;;;11.02;8.10;;;21.50;99.90;;;;;;4961681;28;20135;-73
2023/07/24 09:47:21;;;;;;;10.27;9.18;;;21.70;99.90;;;;;;4975867;28;20982;-73
2023/07/24 09:49:47;;;;;;;10.40;8.70;;;21.80;99.90;;;;;;4987894;28;20107;-69
2023/07/24 09:52:14;;;;;;;10.75;7.93;;;21.90;99.90;;;;;;4975993;28;20066;-73
2023/07/24 09:54:56;;;;;;;9.35;7.88;;;21.90;99.90;;;;;;4986425;28;20054;-74
2023/07/24 09:57:23;;;;;;;12.85;7.60;;;21.80;99.90;;;;;;4971114;28;20352;-73
2023/07/24 09:59:50;;;;;;;;;;;21.70;99.90;;;;;;4983397;28;20502;-73
2023/07/24 10:02:17;;;;;;;;;;;21.60;99.90;;;;;;4982540;28;19926;-74
2023/07/24 10:04:44;;;;;;;8.43;7.35;;;21.70;99.90;;;;;;4971931;28;20308;-75
2023/07/24 10:07:10;;;;;;;;;;;21.80;99.90;;;;;;4986004;28;20050;-79
2023/07/24 10:09:37;;;;;;;8.77;7.80;;;21.80;99.90;;;;;;4990827;28;19928;-79
2023/07/24 10:12:03;;;;;;;;;;;21.80;99.90;;;;;;4981125;28;20076;-76
2023/07/24 10:14:30;;;;;;;10.20;7.83;;;21.90;99.90;;;;;;4971124;28;20008;-77
2023/07/24 10:16:56;;;;;;;;;;;21.90;99.90;;;;;;4986008;28;20851;-77
2023/07/24 10:19:22;;;;;;;9.68;7.85;;;21.80;99.90;;;;;;4996538;28;19925;-78
2023/07/24 10:21:49;;;;;;;11.23;7.78;;;21.80;99.90;;;;;;4969353;28;20108;-77
2023/07/24 10:24:15;;;;;;;12.30;8.70;;;21.80;99.90;;;;;;4965588;28;20053;-77
2023/07/24 10:26:41;;;;;;;10.48;8.25;;;21.80;99.90;;;;;;4996742;28;22119;-79
2023/07/24 10:29:07;;;;;;;10.35;7.57;;;21.80;99.90;;;;;;4969215;28;20050;-76
2023/07/24 10:31:32;;;;;;;8.73;7.43;;;21.90;99.90;;;;;;4963806;28;20046;-78
2023/07/24 10:34:05;;;;;;;11.23;7.85;;;22.00;99.90;;;;;;4965425;28;20133;-79
2023/07/24 10:36:35;;;;;;;8.98;7.28;;;22.10;99.90;;;;;;4988194;28;20050;-77
2023/07/24 10:39:02;;;;;;;10.40;7.82;;;22.10;99.90;;;;;;4988750;28;20042;-74
2023/07/24 10:41:38;;;;;;;8.50;7.57;;;22.00;99.90;;;;;;4969853;28;20502;-74
2023/07/24 10:44:04;;;;;;;8.65;7.20;;;22.00;99.90;;;;;;4977343;28;20081;-75
2023/07/24 10:46:41;;;;;;;8.75;6.60;;;22.00;99.90;;;;;;4980390;28;21264;-74
2023/07/24 10:49:08;;;;;;;7.80;6.78;;;22.10;99.90;;;;;;5010820;28;20100;-75
2023/07/24 10:51:37;;;;;;;10.98;6.55;;;22.10;99.90;;;;;;4997673;28;20085;-74
2023/07/24 10:54:03;;;;;;;10.30;6.15;;;22.10;99.90;;;;;;4968806;28;20606;-75
2023/07/24 10:56:29;;;;;;;9.32;6.40;;;22.20;99.90;;;;;;4978785;28;20081;-75
2023/07/24 10:58:55;;;;;;;8.50;6.25;;;22.30;99.90;;;;;;4994487;28;20173;-73
2023/07/24 11:01:21;;;;;;;7.78;5.57;;;22.40;99.90;;;;;;4988353;28;20135;-74
2023/07/24 11:03:48;;;;;;;8.35;5.50;;;22.60;99.90;;;;;;4966639;28;21273;-74
2023/07/24 11:06:16;;;;;;;7.53;5.25;;;22.70;99.90;;;;;;4986205;28;20039;-74
2023/07/24 11:08:50;;;;;;;7.50;5.22;;;22.90;99.90;;;;;;4984917;28;20084;-74
2023/07/24 11:11:16;;;;;;;7.47;5.18;;;22.90;99.90;;;;;;4977728;28;20076;-75
2023/07/24 11:13:41;;;;;;;8.93;5.32;;;23.10;99.90;;;;;;4975583;28;20054;-74
2023/07/24 11:16:08;;;;;;;7.53;4.78;;;23.30;99.90;;;;;;4993589;28;20038;-74
2023/07/24 11:18:47;;;;;;;8.23;5.45;;;23.40;99.90;;;;;;4995426;28;20129;-78
2023/07/24 11:21:13;;;;;;;8.25;5.65;;;23.50;99.90;;;;;;4994433;28;20552;-75
2023/07/24 11:23:48;;;;;;;8.73;5.68;;;23.60;99.90;;;;;;4984770;28;20042;-74
2023/07/24 11:26:14;;;;;;;9.07;5.40;;;23.60;99.90;;;;;;4991532;28;20041;-77
2023/07/24 11:28:41;;;;;;;7.75;5.15;;;23.60;99.90;;;;;;4986410;28;20061;-76
2023/07/24 11:31:06;;;;;;;9.10;5.60;;;23.60;99.90;;;;;;4979518;28;20042;-74
2023/07/24 11:33:33;;;;;;;7.47;5.20;;;23.60;99.90;;;;;;4986310;28;20052;-75
2023/07/24 11:35:59;;;;;;;8.98;5.03;;;23.60;99.90;;;;;;4968115;28;20049;-74
2023/07/24 11:38:25;;;;;;;7.30;5.15;;;23.40;99.90;;;;;;4969817;28;20050;-74
2023/07/24 11:40:54;;;;;;;6.55;4.78;;;23.40;99.90;;;;;;4974679;28;20603;-74
2023/07/24 11:43:22;;;;;;;9.07;5.60;;;23.40;99.90;;;;;;4979088;28;20137;-74
2023/07/24 11:45:52;;;;;;;10.35;5.88;;;23.40;99.90;;;;;;4993622;28;20564;-75
2023/07/24 11:48:18;;;;;;;8.85;5.22;;;23.30;99.90;;;;;;4987706;28;20057;-76
2023/07/24 11:50:46;;;;;;;8.32;6.47;;;23.30;99.90;;;;;;4975160;28;20084;-76
2023/07/24 11:53:25;;;;;;;9.68;5.90;;;23.20;99.90;;;;;;4985582;28;20089;-78
2023/07/24 11:55:53;;;;;;;10.68;6.32;;;23.20;99.90;;;;;;4986757;28;20058;-74
2023/07/24 11:58:20;;;;;;;9.35;5.82;;;23.10;99.90;;;;;;4990557;28;20053;-77
2023/07/24 12:00:51;;;;;;;11.63;5.95;;;23.10;99.90;;;;;;4969510;28;20573;-75
2023/07/24 12:03:21;;;;;;;9.77;6.50;;;23.10;99.90;;;;;;4974417;28;20046;-77
2023/07/24 12:05:47;;;;;;;7.97;5.55;;;23.20;99.90;;;;;;4968968;28;20050;-75
2023/07/24 12:08:14;;;;;;;7.20;5.90;;;23.10;99.90;;;;;;4980708;28;20045;-84
2023/07/24 12:10:41;;;;;;;7.05;5.57;;;23.10;99.90;;;;;;4972353;28;20054;-72
2023/07/24 12:13:09;;;;;;;8.55;6.07;;;23.10;99.90;;;;;;4972981;28;20050;-75
2023/07/24 12:15:36;;;;;;;9.55;5.97;;;23.00;99.90;;;;;;4988451;28;20561;-77
2023/07/24 12:18:05;;;;;;;7.70;6.27;;;23.00;99.90;;;;;;4973382;28;20575;-74
2023/07/24 12:20:31;;;;;;;9.38;7.00;;;23.00;99.90;;;;;;4974204;28;21532;-74
2023/07/24 12:22:57;;;;;;;9.90;6.53;;;23.00;99.90;;;;;;4980648;28;20132;-74
2023/07/24 12:25:23;;;;;;;8.67;6.20;;;23.00;99.90;;;;;;4974127;28;20054;-74
2023/07/24 12:27:52;;;;;;;9.63;5.97;;;23.00;99.90;;;;;;4970704;28;20058;-74
2023/07/24 12:30:19;;;;;;;8.85;6.00;;;23.00;99.90;;;;;;4958451;28;20165;-74
2023/07/24 12:32:44;;;;;;;7.28;5.13;;;23.10;99.90;;;;;;4992619;28;20409;-74
2023/07/24 12:35:10;;;;;;;8.32;5.40;;;23.20;99.90;;;;;;4982137;28;20045;-74
2023/07/24 12:37:36;;;;;;;9.43;5.55;;;23.40;99.90;;;;;;4982774;28;20045;-75